Time;durP1;ratioP1;P1;durP2;ratioP2;P2;SDS_P1;SDS_P2;PMS_P1;PMS_P2;Temp;Humidity;BMP_temperature;BMP_pressure;BME280_temperature;BME280_humidity;BME280_pressure;Samples;Min_cycle;Max_cycle;Signal;HPM_P1;HPM_P2
2021/03/24 00:01:57;;;;;;;14.70;3.70;;;;;;;-1.33;61.87;100285.72;126236;1099;119125;-81
2021/03/24 00:04:26;;;;;;;12.23;3.67;;;;;;;-1.35;61.23;100282.14;126162;1099;104171;-80
2021/03/24 00:06:55;;;;;;;11.20;4.23;;;;;;;-1.34;61.70;100286.48;126298;1099;104245;-80
2021/03/24 00:09:24;;;;;;;10.87;4.13;;;;;;;-1.37;61.36;100282.02;126265;1099;104159;-80
2021/03/24 00:11:53;;;;;;;12.30;3.60;;;;;;;-1.38;61.29;100277.63;126270;1099;104172;-80
2021/03/24 00:14:22;;;;;;;8.43;3.30;;;;;;;-1.40;62.16;100275.70;126326;1099;104425;-80
2021/03/24 00:16:51;;;;;;;9.50;3.77;;;;;;;-1.41;61.58;100279.08;126256;1098;104162;-80
2021/03/24 00:19:20;;;;;;;13.97;3.53;;;;;;;-1.45;61.63;100271.11;126302;1099;104844;-80
2021/03/24 00:21:49;;;;;;;9.50;3.40;;;;;;;-1.45;62.13;100280.48;126257;1099;104271;-80
2021/03/24 00:24:18;;;;;;;8.70;3.50;;;;;;;-1.47;62.15;100277.78;126326;1098;101790;-80
2021/03/24 00:26:47;;;;;;;10.07;3.70;;;;;;;-1.47;61.42;100279.47;126279;1099;104153;-80
2021/03/24 00:29:17;;;;;;;12.17;3.80;;;;;;;-1.47;61.45;100274.32;126216;1099;104153;-79
2021/03/24 00:31:45;;;;;;;12.00;4.00;;;;;;;-1.48;61.64;100275.09;126110;1099;104136;-80
2021/03/24 00:34:14;;;;;;;11.73;3.90;;;;;;;-1.50;61.81;100269.82;126277;1099;104159;-80
2021/03/24 00:36:43;;;;;;;12.27;3.60;;;;;;;-1.49;61.75;100278.46;126266;1099;104269;-79
2021/03/24 00:39:17;;;;;;;10.93;3.40;;;;;;;-1.50;62.10;100276.66;126295;1099;103033;-79
2021/03/24 00:41:45;;;;;;;11.60;3.50;;;;;;;-1.51;61.62;100273.19;126146;1099;104198;-79
2021/03/24 00:44:14;;;;;;;7.90;3.15;;;;;;;-1.50;62.21;100274.97;126323;1099;104210;-79
2021/03/24 00:46:44;;;;;;;10.50;3.60;;;;;;;-1.49;61.29;100274.20;126279;1099;104178;-79
2021/03/24 00:49:12;;;;;;;10.90;3.17;;;;;;;-1.48;62.35;100269.94;126350;1098;102027;-79
2021/03/24 00:51:41;;;;;;;9.90;3.40;;;;;;;-1.47;62.76;100279.47;126272;1099;105572;-79
2021/03/24 00:54:10;;;;;;;9.47;3.40;;;;;;;-1.47;61.37;100276.90;126249;1099;104143;-79
2021/03/24 00:56:39;;;;;;;12.40;3.70;;;;;;;-1.47;62.13;100261.45;126264;1099;104265;-79
2021/03/24 00:59:08;;;;;;;8.90;3.20;;;;;;;-1.47;61.74;100261.45;126272;1099;104146;-78
2021/03/24 01:01:37;;;;;;;9.83;3.47;;;;;;;-1.48;61.31;100273.44;126284;1099;104144;-79
2021/03/24 01:04:06;;;;;;;8.67;3.80;;;;;;;-1.49;61.80;100274.20;126267;1099;104280;-79
2021/03/24 01:06:36;;;;;;;9.87;3.53;;;;;;;-1.50;61.76;100271.50;126252;1099;104182;-79
2021/03/24 01:09:09;;;;;;;8.53;3.20;;;;;;;-1.50;63.06;100272.39;126322;1097;104140;-79
2021/03/24 01:11:39;;;;;;;6.57;3.23;;;;;;;-1.48;61.91;100269.94;126264;1099;104147;-80
2021/03/24 01:14:10;;;;;;;5.87;2.93;;;;;;;-1.45;62.32;100273.68;126287;1099;104143;-78
2021/03/24 01:16:39;;;;;;;13.03;4.00;;;;;;;-1.46;61.85;100276.13;126249;1099;104143;-79
2021/03/24 01:19:08;;;;;;;9.10;4.00;;;;;;;-1.47;61.85;100276.90;126286;1099;104304;-79
2021/03/24 01:21:37;;;;;;;7.97;3.33;;;;;;;-1.49;61.93;100283.61;126235;1099;104363;-79
2021/03/24 01:24:07;;;;;;;11.20;3.73;;;;;;;-1.50;62.74;100277.54;126284;1097;104152;-79
2021/03/24 01:26:35;;;;;;;8.63;3.60;;;;;;;-1.51;62.82;100273.19;126302;1099;104152;-79
2021/03/24 01:29:05;;;;;;;10.77;3.80;;;;;;;-1.48;62.99;100277.66;126285;1098;104147;-79
2021/03/24 01:31:34;;;;;;;7.93;3.53;;;;;;;-1.49;62.23;100279.34;126220;1099;104374;-79
2021/03/24 01:34:03;;;;;;;10.53;3.50;;;;;;;-1.47;63.01;100288.08;126279;1099;104592;-79
2021/03/24 01:36:33;;;;;;;9.73;3.17;;;;;;;-1.44;62.25;100287.44;126312;1099;104137;-78
2021/03/24 01:39:03;;;;;;;8.65;3.15;;;;;;;-1.42;63.16;100279.84;126267;1098;104143;-79
2021/03/24 01:41:32;;;;;;;9.33;3.70;;;;;;;-1.38;62.16;100281.89;126283;1099;104297;-78
2021/03/24 01:44:01;;;;;;;7.73;2.87;;;;;;;-1.36;62.30;100280.33;126244;1099;105486;-79
2021/03/24 01:46:42;;;;;;;8.40;3.33;;;;;;;-1.35;63.07;100283.02;126244;1099;104169;-79
2021/03/24 01:49:20;;;;;;;7.27;2.83;;;;;;;-1.35;62.51;100283.02;126300;1099;104493;-79
2021/03/24 01:51:53;;;;;;;8.87;3.23;;;;;;;-1.33;62.92;100288.30;126234;1099;104284;-80
2021/03/24 01:54:26;;;;;;;6.67;2.90;;;;;;;-1.33;62.58;100296.91;126295;1099;117825;-78
2021/03/24 01:57:00;;;;;;;7.17;3.10;;;;;;;-1.34;62.42;100295.13;126225;1099;104207;-78
2021/03/24 01:59:29;;;;;;;6.85;3.10;;;;;;;-1.34;62.42;100295.13;126304;1099;104999;-79
2021/03/24 02:01:59;;;;;;;8.53;3.00;;;;;;;-1.31;63.45;100294.45;126300;1099;104150;-79
2021/03/24 02:04:28;;;;;;;5.90;2.87;;;;;;;-1.30;63.52;100299.72;126325;1099;104213;-78
2021/03/24 02:07:04;;;;;;;7.00;2.70;;;;;;;-1.28;63.76;100304.99;126292;1099;104150;-79
2021/03/24 02:09:40;;;;;;;6.73;3.00;;;;;;;-1.25;62.74;100300.09;126284;1099;104274;-78
2021/03/24 02:12:14;;;;;;;7.10;3.17;;;;;;;-1.24;63.67;100301.90;126312;1099;104159;-78
2021/03/24 02:14:49;;;;;;;8.47;3.20;;;;;;;-1.22;62.85;100300.33;126184;1099;110260;-78
2021/03/24 02:17:20;;;;;;;6.60;2.97;;;;;;;-1.23;63.33;100295.98;126277;1099;104277;-78
2021/03/24 02:19:59;;;;;;;10.87;3.57;;;;;;;-1.20;63.27;100293.65;126315;1099;104143;-78
2021/03/24 02:22:37;;;;;;;7.83;3.30;;;;;;;-1.18;63.72;100298.92;126277;1099;104185;-78
2021/03/24 02:25:14;;;;;;;9.10;3.37;;;;;;;-1.16;62.62;100294.78;126197;1099;104508;-78
2021/03/24 02:27:49;;;;;;;6.57;3.10;;;;;;;-1.14;63.32;100295.78;126321;1099;104156;-78
2021/03/24 02:30:24;;;;;;;9.40;3.03;;;;;;;-1.11;64.02;100302.10;126290;1099;104213;-79
2021/03/24 02:33:00;;;;;;;12.03;3.20;;;;;;;-1.09;64.08;100294.50;126265;1099;104351;-79
2021/03/24 02:35:34;;;;;;;8.30;3.10;;;;;;;-1.03;63.46;100309.51;126299;1099;104149;-78
2021/03/24 02:38:08;;;;;;;6.23;2.70;;;;;;;-1.01;63.69;100310.52;126285;1099;104190;-78
2021/03/24 02:40:39;;;;;;;6.00;2.80;;;;;;;-1.00;63.84;100315.79;126279;1099;104178;-78
2021/03/24 02:43:10;;;;;;;7.77;2.77;;;;;;;-1.03;63.45;100307.82;126234;1099;104150;-79
2021/03/24 02:45:42;;;;;;;6.00;3.10;;;;;;;-1.09;64.08;100307.38;126269;1099;104235;-78
2021/03/24 02:48:14;;;;;;;7.43;3.03;;;;;;;-1.12;63.60;100313.17;126285;1099;104178;-79
2021/03/24 02:50:45;;;;;;;9.87;3.30;;;;;;;-1.11;64.82;100312.41;126319;1099;104149;-79
2021/03/24 02:53:15;;;;;;;7.63;2.90;;;;;;;-1.09;63.84;100315.09;126269;1099;104178;-79
2021/03/24 02:55:45;;;;;;;8.60;3.00;;;;;;;-1.07;64.78;100328.09;126278;1099;108145;-78
2021/03/24 02:58:14;;;;;;;6.03;3.00;;;;;;;-1.10;63.58;100319.33;126270;1099;104204;-79
2021/03/24 03:00:46;;;;;;;7.40;3.10;;;;;;;-1.11;63.86;100330.43;126255;1099;104281;-79
2021/03/24 03:03:23;;;;;;;6.50;2.93;;;;;;;-1.12;64.94;100328.62;126296;1099;104768;-79
2021/03/24 03:05:55;;;;;;;8.00;3.23;;;;;;;-1.11;64.75;100325.28;126276;1099;104198;-78
2021/03/24 03:08:29;;;;;;;6.70;2.90;;;;;;;-1.11;63.84;100320.12;126281;1099;104146;-78
2021/03/24 03:11:03;;;;;;;8.53;3.20;;;;;;;-1.09;64.79;100320.25;126299;1099;104137;-79
2021/03/24 03:13:35;;;;;;;7.67;3.40;;;;;;;-1.10;63.82;100321.91;126278;1098;104127;-79
2021/03/24 03:16:08;;;;;;;5.80;3.40;;;;;;;-1.08;63.85;100319.45;126236;1099;105611;-79
2021/03/24 03:18:42;;;;;;;7.95;3.05;;;;;;;-1.07;63.72;100320.38;126310;1099;104168;-79
2021/03/24 03:21:14;;;;;;;7.35;2.75;;;;;;;-1.08;64.68;100322.02;126260;1099;104201;-78
2021/03/24 03:23:44;;;;;;;8.80;3.43;;;;;;;-1.09;64.62;100327.97;126271;1098;104146;-79
2021/03/24 03:26:18;;;;;;;6.80;3.33;;;;;;;-1.09;64.00;100321.14;126182;1099;104178;-78
2021/03/24 03:28:50;;;;;;;7.70;3.10;;;;;;;-1.06;63.90;100319.57;126317;1099;104152;-79
2021/03/24 03:31:26;;;;;;;6.03;2.80;;;;;;;-1.05;64.94;100311.08;126278;1099;104162;-79
2021/03/24 03:33:57;;;;;;;7.20;3.23;;;;;;;-1.02;64.47;100311.32;126207;1099;104689;-79
2021/03/24 03:36:30;;;;;;;7.07;2.90;;;;;;;-1.01;65.08;100313.09;126264;1099;104143;-79
2021/03/24 03:39:02;;;;;;;9.00;3.30;;;;;;;-1.03;64.75;100312.09;126295;1099;104134;-79
2021/03/24 03:41:33;;;;;;;8.33;3.53;;;;;;;-1.07;64.69;100316.11;126157;1098;104139;-79
2021/03/24 03:44:04;;;;;;;8.27;3.00;;;;;;;-1.06;65.29;100305.04;126293;1099;104194;-79
2021/03/24 03:46:36;;;;;;;6.50;2.90;;;;;;;-1.07;64.26;100300.66;126255;1099;104165;-79
2021/03/24 03:49:06;;;;;;;9.57;3.30;;;;;;;-1.04;63.98;100310.27;126286;1099;104283;-79
2021/03/24 03:51:46;;;;;;;9.77;3.30;;;;;;;-1.03;64.08;100307.82;126265;1098;104153;-79
2021/03/24 03:54:24;;;;;;;9.30;3.53;;;;;;;-1.03;64.21;100312.09;126290;1099;104143;-78
2021/03/24 03:57:04;;;;;;;10.40;3.50;;;;;;;-1.04;64.41;100315.42;126325;1099;104573;-79
2021/03/24 03:59:40;;;;;;;7.80;3.37;;;;;;;-1.05;65.27;100313.66;126273;1099;104268;-78
2021/03/24 04:02:15;;;;;;;7.07;3.40;;;;;;;-1.09;65.83;100326.29;126290;1099;104149;-78
2021/03/24 04:04:49;;;;;;;8.77;3.70;;;;;;;-1.11;64.44;100320.12;126254;1099;104204;-78
2021/03/24 04:07:24;;;;;;;7.60;3.53;;;;;;;-1.12;65.75;100310.59;126286;1099;104656;-78
2021/03/24 04:09:56;;;;;;;9.43;3.83;;;;;;;-1.10;65.00;100318.44;126218;1099;104149;-78
2021/03/24 04:12:28;;;;;;;9.60;3.53;;;;;;;-1.08;65.29;100316.88;126282;1099;104139;-78
2021/03/24 04:14:58;;;;;;;7.80;3.90;;;;;;;-1.05;65.25;100334.25;126253;1099;104466;-78
2021/03/24 04:17:31;;;;;;;13.40;3.27;;;;;;;-1.03;65.72;100318.13;126241;1099;104143;-78
2021/03/24 04:20:03;;;;;;;7.87;3.67;;;;;;;-1.01;66.02;100321.74;126229;1099;104293;-79
2021/03/24 04:22:34;;;;;;;10.03;3.73;;;;;;;-1.00;65.17;100322.63;126317;1099;104146;-78
2021/03/24 04:25:05;;;;;;;9.67;3.93;;;;;;;-0.99;66.02;100325.33;126267;1099;104162;-79
2021/03/24 04:27:40;;;;;;;8.50;3.43;;;;;;;-0.95;64.89;100322.23;126339;1097;118687;-78
2021/03/24 04:30:13;;;;;;;9.93;4.08;;;;;;;-0.91;65.71;100313.05;126247;1099;104149;-78
2021/03/24 04:32:42;;;;;;;6.80;3.57;;;;;;;-0.87;65.53;100324.48;126255;1099;104172;-78
2021/03/24 04:35:18;;;;;;;10.70;3.80;;;;;;;-0.85;65.18;100326.41;126291;1099;104152;-79
2021/03/24 04:37:49;;;;;;;10.60;4.50;;;;;;;-0.78;66.28;100320.97;126212;1099;104176;-79
2021/03/24 04:40:27;;;;;;;9.53;4.23;;;;;;;-0.74;66.61;100322.09;126219;1099;104143;-78
2021/03/24 04:43:02;;;;;;;13.13;4.40;;;;;;;-0.71;66.23;100337.80;126181;1099;104195;-78
2021/03/24 04:45:37;;;;;;;8.17;4.03;;;;;;;-0.75;66.56;100338.33;126250;1099;104184;-78
2021/03/24 04:48:13;;;;;;;11.07;4.27;;;;;;;-0.78;65.90;100335.50;126229;1099;110022;-79
2021/03/24 04:50:47;;;;;;;11.03;4.87;;;;;;;-0.84;66.89;100343.67;126281;1098;104155;-78
2021/03/24 04:53:18;;;;;;;14.65;5.53;;;;;;;-0.88;66.49;100338.16;126260;1099;104150;-78
2021/03/24 04:55:50;;;;;;;12.47;5.07;;;;;;;-0.92;66.57;100332.77;126143;1099;104171;-79
2021/03/24 04:58:28;;;;;;;13.43;4.73;;;;;;;-0.86;66.99;100337.48;126134;1099;104146;-79
2021/03/24 05:01:03;;;;;;;11.73;4.70;;;;;;;-0.81;66.42;100341.34;126273;1099;104293;-79
2021/03/24 05:03:37;;;;;;;9.50;3.90;;;;;;;-0.79;66.57;100339.77;126296;1099;104258;-79
2021/03/24 05:06:15;;;;;;;11.55;4.50;;;;;;;-0.78;66.59;100335.50;126266;1099;104216;-79
2021/03/24 05:08:45;;;;;;;13.57;4.70;;;;;;;-0.77;67.17;100342.47;126160;1099;108135;-79
2021/03/24 05:11:21;;;;;;;10.03;4.70;;;;;;;-0.74;66.87;100334.98;126201;1098;104272;-79
2021/03/24 05:13:58;;;;;;;8.90;3.80;;;;;;;-0.69;67.05;100340.49;126120;1097;104718;-79
2021/03/24 05:16:32;;;;;;;8.93;3.83;;;;;;;-0.70;66.53;100337.02;126213;1099;104265;-79
2021/03/24 05:19:01;;;;;;;11.28;4.78;;;;;;;-0.72;66.68;100330.83;126175;1099;117826;-79
2021/03/24 05:21:57;;;;;;;8.83;4.20;;;;;;;-0.63;66.79;100326.39;126231;1099;104576;-79
2021/03/24 05:24:32;;;;;;;9.30;4.13;;;;;;;-0.62;67.12;100319.58;126241;1098;104140;-80
2021/03/24 05:27:06;;;;;;;8.20;3.90;;;;;;;-0.64;67.25;100323.70;126261;1099;104277;-80
2021/03/24 05:29:38;;;;;;;;;;;;;;;-0.59;67.34;100322.39;126259;1099;104579;-80
2021/03/24 05:32:15;;;;;;;8.73;4.20;;;;;;;-0.57;67.28;100313.09;126206;1099;104155;-80
2021/03/24 05:34:48;;;;;;;7.97;3.50;;;;;;;-0.55;66.73;100311.52;126236;1099;104152;-80
2021/03/24 05:37:17;;;;;;;8.93;4.07;;;;;;;-0.51;66.36;100310.06;126091;1099;104179;-80
2021/03/24 05:39:47;;;;;;;8.83;3.90;;;;;;;-0.46;67.03;100317.38;126130;1099;104181;-80
2021/03/24 05:42:37;;;;;;;8.23;3.80;;;;;;;-0.43;67.64;100311.58;126236;1099;104139;-80
2021/03/24 05:45:27;;;;;;;10.27;4.53;;;;;;;-0.42;66.74;100306.53;126155;1099;104277;-80
2021/03/24 05:48:22;;;;;;;9.20;4.30;;;;;;;-0.39;67.12;100317.08;126004;1099;104220;-77
2021/03/24 05:51:10;;;;;;;7.37;3.83;;;;;;;-0.32;67.35;100313.28;125986;1099;104290;-78
2021/03/24 05:53:55;;;;;;;10.87;4.50;;;;;;;-0.28;67.48;100320.48;126243;1099;104141;-78
2021/03/24 05:56:38;;;;;;;9.53;3.87;;;;;;;-0.26;67.31;100318.02;126275;1099;104140;-78
2021/03/24 05:59:19;;;;;;;9.43;4.20;;;;;;;-0.27;67.08;100322.25;126013;1099;104328;-78
2021/03/24 06:01:54;;;;;;;9.83;4.40;;;;;;;-0.23;67.26;100325.98;126178;1099;104194;-78
2021/03/24 06:04:32;;;;;;;8.77;4.33;;;;;;;-0.20;66.92;100324.52;126260;1099;104195;-78
2021/03/24 06:07:38;;;;;;;13.40;4.90;;;;;;;-0.15;66.69;100322.30;126276;1099;104194;-77
2021/03/24 06:10:40;;;;;;;12.50;4.50;;;;;;;-0.06;67.05;100316.94;126087;1099;107194;-78
2021/03/24 06:13:49;;;;;;;16.50;5.30;;;;;;;0.09;66.64;100319.75;126097;1099;104172;-78
2021/03/24 06:16:42;;;;;;;18.30;6.90;;;;;;;0.31;66.83;100319.64;125954;1099;104246;-78
2021/03/24 06:19:23;;;;;;;21.13;7.00;;;;;;;0.50;67.01;100327.08;125932;1099;104341;-78
2021/03/24 06:22:03;;;;;;;20.67;7.20;;;;;;;0.61;66.79;100321.00;126010;1099;104133;-78
2021/03/24 06:24:48;;;;;;;23.23;8.13;;;;;;;0.74;67.03;100330.52;126006;1099;104195;-78
2021/03/24 06:27:49;;;;;;;16.90;7.37;;;;;;;0.72;66.63;100316.61;126118;1099;104278;-78
2021/03/24 06:30:31;;;;;;;20.67;7.60;;;;;;;0.71;66.25;100333.77;126001;1099;104190;-78
2021/03/24 06:33:27;;;;;;;19.27;7.07;;;;;;;0.71;66.63;100333.77;126117;1099;104274;-79
2021/03/24 06:36:10;;;;;;;12.77;5.67;;;;;;;0.70;66.96;100337.16;125894;1099;104152;-79
2021/03/24 06:38:52;;;;;;;16.87;6.27;;;;;;;0.70;66.47;100326.83;125971;1099;104207;-79
2021/03/24 06:41:44;;;;;;;17.05;7.70;;;;;;;0.75;66.46;100328.82;125885;1099;104171;-78
2021/03/24 06:44:44;;;;;;;14.00;6.20;;;;;;;0.73;66.29;100330.41;125971;1098;104233;-79
2021/03/24 06:47:25;;;;;;;15.57;6.47;;;;;;;0.78;66.62;100335.13;125895;1099;104152;-78
2021/03/24 06:50:37;;;;;;;14.30;6.65;;;;;;;0.89;65.91;100333.31;125833;1099;104239;-78
2021/03/24 06:53:32;;;;;;;13.70;5.20;;;;;;;0.96;66.51;100348.45;125857;1099;104246;-79
2021/03/24 06:56:27;;;;;;;15.63;6.50;;;;;;;0.99;66.11;100338.33;125847;1099;104592;-79
2021/03/24 06:59:17;;;;;;;15.87;6.20;;;;;;;1.05;66.34;100348.22;125903;1099;104583;-79
2021/03/24 07:01:56;;;;;;;14.47;5.87;;;;;;;1.11;66.26;100339.98;126028;1099;104188;-77
2021/03/24 07:04:52;;;;;;;13.47;6.23;;;;;;;1.07;66.40;100339.77;125920;1099;104150;-76
2021/03/24 07:07:35;;;;;;;17.73;6.60;;;;;;;1.04;66.49;100336.99;125894;1098;105228;-77
2021/03/24 07:10:23;;;;;;;16.30;7.13;;;;;;;1.04;66.61;100342.16;125831;1099;104223;-77
2021/03/24 07:13:13;;;;;;;16.40;6.60;;;;;;;1.04;66.62;100354.16;125994;1099;104223;-76
2021/03/24 07:15:51;;;;;;;17.20;7.10;;;;;;;1.03;66.82;100371.36;126111;1099;104185;-77
2021/03/24 07:18:55;;;;;;;22.10;8.00;;;;;;;0.97;66.72;100360.59;125944;1098;104178;-77
2021/03/24 07:21:50;;;;;;;17.93;7.63;;;;;;;0.98;67.92;100374.39;125890;1099;104210;-77
2021/03/24 07:24:48;;;;;;;18.33;8.30;;;;;;;0.99;67.61;100363.28;125946;1099;104383;-77
2021/03/24 07:27:30;;;;;;;22.83;8.07;;;;;;;1.04;67.02;100367.08;125939;1099;104945;-78
2021/03/24 07:30:11;;;;;;;20.93;8.03;;;;;;;1.07;67.42;100378.52;125862;1099;104221;-78
2021/03/24 07:32:49;;;;;;;16.80;7.47;;;;;;;1.11;67.51;100373.58;125881;1099;104173;-77
2021/03/24 07:35:34;;;;;;;17.00;7.70;;;;;;;1.17;67.33;100379.19;125929;1099;104374;-78
2021/03/24 07:38:42;;;;;;;17.63;7.23;;;;;;;1.22;67.86;100372.67;126149;1099;104178;-78
2021/03/24 07:41:43;;;;;;;18.07;7.37;;;;;;;1.15;67.23;100381.66;125514;1100;104172;-78
2021/03/24 07:44:32;;;;;;;21.20;8.60;;;;;;;1.16;67.34;100377.41;125969;1099;104201;-78
2021/03/24 07:47:28;;;;;;;18.37;8.53;;;;;;;1.15;67.53;100373.02;126106;1099;104220;-78
2021/03/24 07:50:19;;;;;;;18.43;8.33;;;;;;;1.20;67.62;100388.08;125988;1099;104143;-79
2021/03/24 07:53:00;;;;;;;18.23;8.07;;;;;;;1.26;67.81;100379.84;126017;1099;104382;-78
2021/03/24 07:55:39;;;;;;;20.37;8.40;;;;;;;1.31;67.37;100386.25;125925;1099;104201;-79
2021/03/24 07:58:27;;;;;;;19.40;8.33;;;;;;;1.23;68.15;100389.95;125977;1099;104153;-78
2021/03/24 08:01:06;;;;;;;22.37;8.17;;;;;;;1.18;67.65;100396.50;125992;1099;104172;-78
2021/03/24 08:03:52;;;;;;;17.50;7.67;;;;;;;1.14;67.89;100397.98;126161;1099;104217;-78
2021/03/24 08:06:32;;;;;;;19.03;7.60;;;;;;;1.12;68.03;100398.64;126056;1099;104165;-77
2021/03/24 08:09:25;;;;;;;21.07;8.57;;;;;;;1.12;68.39;100390.89;126223;1099;104188;-77
2021/03/24 08:12:09;;;;;;;22.07;8.40;;;;;;;1.12;67.66;100401.23;126006;1097;104175;-77
2021/03/24 08:14:57;;;;;;;20.35;8.08;;;;;;;1.13;67.61;100408.20;125813;1099;102279;-78
2021/03/24 08:17:38;;;;;;;17.07;8.03;;;;;;;1.12;67.96;100396.06;126016;1097;104175;-78
2021/03/24 08:20:28;;;;;;;17.33;7.20;;;;;;;1.18;67.92;100428.41;125964;1099;104293;-77
2021/03/24 08:23:22;;;;;;;18.33;7.27;;;;;;;1.34;67.58;100412.33;125910;1099;108882;-77
2021/03/24 08:26:07;;;;;;;19.83;8.13;;;;;;;1.44;67.19;100404.41;126117;1099;104199;-77
2021/03/24 08:28:54;;;;;;;18.27;7.20;;;;;;;1.50;67.25;100400.48;125948;1099;104265;-78
2021/03/24 08:31:55;;;;;;;20.00;7.67;;;;;;;1.47;67.13;100401.16;125977;1099;104777;-77
2021/03/24 08:34:47;;;;;;;19.00;7.37;;;;;;;1.48;67.49;100413.30;125970;1099;104217;-78
2021/03/24 08:37:43;;;;;;;19.50;8.00;;;;;;;1.40;67.29;100422.19;125980;1099;104344;-78
2021/03/24 08:40:42;;;;;;;16.13;6.77;;;;;;;1.38;67.63;100424.66;125991;1099;104290;-78
2021/03/24 08:43:32;;;;;;;18.37;7.90;;;;;;;1.36;67.65;100427.95;126025;1099;104144;-79
2021/03/24 08:46:13;;;;;;;27.40;11.20;;;;;;;1.36;67.65;100428.84;126025;1099;104144;-77
2021/03/24 08:48:50;;;;;;;18.73;7.87;;;;;;;1.40;67.42;100433.45;125994;1099;104385;-77
2021/03/24 08:51:30;;;;;;;20.03;8.40;;;;;;;1.41;67.81;100430.05;125996;1099;104198;-77
2021/03/24 08:54:27;;;;;;;17.43;7.20;;;;;;;1.42;67.54;100446.48;126055;1099;104783;-77
2021/03/24 08:57:05;;;;;;;17.30;7.20;;;;;;;1.33;67.36;100427.73;125815;1099;104162;-78
2021/03/24 08:59:41;;;;;;;18.33;7.10;;;;;;;1.30;68.51;100428.39;125960;1099;104137;-78
2021/03/24 09:02:42;;;;;;;;;;;;;;;;;;;;;
2021/03/24 09:05:30;;;;;;;18.87;7.60;;;;;;;1.33;67.82;100436.38;125928;1099;104636;-77
2021/03/24 09:08:24;;;;;;;16.95;7.20;;;;;;;1.30;67.64;100445.61;125716;1099;104624;-78
2021/03/24 09:11:09;;;;;;;18.80;7.53;;;;;;;1.24;67.97;100443.47;125952;1099;104146;-78
2021/03/24 09:13:45;;;;;;;15.60;6.33;;;;;;;1.23;67.68;100446.83;126073;1099;104942;-77
2021/03/24 09:16:39;;;;;;;19.20;7.53;;;;;;;1.24;67.76;100444.35;126033;1099;104140;-78
2021/03/24 09:19:22;;;;;;;21.67;8.47;;;;;;;1.25;67.64;100433.23;126081;1098;104172;-78
2021/03/24 09:22:09;;;;;;;19.63;8.40;;;;;;;1.25;67.98;100450.45;126018;1099;104143;-78
2021/03/24 09:25:03;;;;;;;20.13;8.37;;;;;;;1.25;67.83;100447.86;126012;1099;109349;-79
2021/03/24 09:28:09;;;;;;;16.30;7.40;;;;;;;1.25;67.80;100442.69;125988;1099;104222;-78
2021/03/24 09:31:03;;;;;;;17.43;7.80;;;;;;;1.20;67.67;100444.02;125944;1099;104242;-78
2021/03/24 09:33:51;;;;;;;19.10;7.77;;;;;;;1.16;67.90;100449.78;125932;1099;105499;-78
2021/03/24 09:36:44;;;;;;;17.40;7.40;;;;;;;1.17;67.97;100446.38;126047;1099;104232;-77
2021/03/24 09:39:22;;;;;;;17.90;8.13;;;;;;;1.17;67.99;100452.48;126168;1099;104229;-78
2021/03/24 09:41:59;;;;;;;18.37;8.17;;;;;;;1.18;67.88;100456.83;125934;1099;104133;-78
2021/03/24 09:44:42;;;;;;;19.10;8.50;;;;;;;1.20;68.25;100464.70;126001;1099;104149;-79
2021/03/24 09:47:31;;;;;;;19.70;8.57;;;;;;;1.21;67.84;100474.27;126019;1099;104216;-78
2021/03/24 09:50:10;;;;;;;16.97;7.73;;;;;;;1.27;67.97;100463.48;126022;1099;104166;-78
2021/03/24 09:52:55;;;;;;;18.63;8.40;;;;;;;1.30;68.33;100462.00;126061;1097;104114;-79
2021/03/24 09:55:46;;;;;;;19.40;8.97;;;;;;;1.34;68.34;100466.62;125943;1099;105701;-78
2021/03/24 09:58:54;;;;;;;19.87;8.77;;;;;;;1.41;68.29;100471.42;125980;1099;104283;-78
2021/03/24 10:01:47;;;;;;;16.00;7.23;;;;;;;1.48;68.26;100467.61;125921;1099;104627;-79
2021/03/24 10:04:40;;;;;;;18.90;7.83;;;;;;;1.58;68.18;100461.39;125907;1098;104146;-79
2021/03/24 10:07:16;;;;;;;16.60;6.93;;;;;;;1.74;68.22;100471.13;126031;1099;104033;-78
2021/03/24 10:10:04;;;;;;;17.57;7.63;;;;;;;1.75;68.35;100466.06;126083;1097;104168;-80
2021/03/24 10:12:38;;;;;;;17.47;7.70;;;;;;;1.73;68.07;100469.31;125917;1099;104293;-79
2021/03/24 10:15:25;;;;;;;17.00;8.03;;;;;;;1.77;68.17;100468.75;125926;1099;104278;-79
2021/03/24 10:18:01;;;;;;;17.63;8.37;;;;;;;1.81;68.08;100473.37;125885;1099;104143;-80
2021/03/24 10:20:40;;;;;;;17.67;8.37;;;;;;;1.84;67.88;100467.48;126114;1099;104178;-78
2021/03/24 10:23:23;;;;;;;15.73;7.20;;;;;;;1.93;68.21;100475.89;126173;1099;104124;-79
2021/03/24 10:25:57;;;;;;;19.03;8.03;;;;;;;2.06;68.35;100464.72;125969;1099;104710;-79
2021/03/24 10:28:40;;;;;;;19.10;8.70;;;;;;;2.11;68.10;100463.34;125911;1099;103269;-79
2021/03/24 10:31:17;;;;;;;18.80;8.77;;;;;;;2.19;68.28;100461.28;125924;1099;104171;-81
2021/03/24 10:33:52;;;;;;;20.57;8.57;;;;;;;2.34;68.01;100464.92;125974;1096;103051;-81
2021/03/24 10:36:28;;;;;;;20.03;8.60;;;;;;;2.48;68.26;100456.38;125990;1099;106736;-79
2021/03/24 10:39:06;;;;;;;17.00;7.60;;;;;;;2.60;68.12;100461.50;125827;1099;104392;-79
2021/03/24 10:41:56;;;;;;;19.87;8.87;;;;;;;2.60;67.89;100455.39;125726;1098;104519;-78
2021/03/24 10:44:45;;;;;;;20.00;9.43;;;;;;;2.59;67.98;100453.63;125809;1099;104528;-79
2021/03/24 10:47:27;;;;;;;18.30;8.77;;;;;;;2.57;67.72;100458.70;125916;1099;104191;-77
2021/03/24 10:50:18;;;;;;;17.07;7.57;;;;;;;2.55;68.19;100456.79;125861;1099;102840;-77
2021/03/24 10:53:13;;;;;;;18.87;8.90;;;;;;;2.56;68.14;100453.41;125953;1099;104383;-78
2021/03/24 10:55:59;;;;;;;20.83;9.63;;;;;;;2.69;68.33;100451.71;125537;1098;104257;-78
2021/03/24 10:58:53;;;;;;;15.73;7.67;;;;;;;2.84;68.58;100462.20;125259;1099;104169;-78
2021/03/24 11:01:40;;;;;;;18.70;9.03;;;;;;;2.85;68.18;100464.02;125145;1099;104175;-78
2021/03/24 11:04:23;;;;;;;17.10;8.20;;;;;;;2.91;68.00;100450.53;125120;1099;104169;-77
2021/03/24 11:07:04;;;;;;;17.43;7.87;;;;;;;2.95;68.47;100449.95;125657;1099;104160;-77
2021/03/24 11:09:53;;;;;;;17.67;8.30;;;;;;;3.01;68.30;100460.72;125804;1099;104159;-79
2021/03/24 11:12:29;;;;;;;20.93;9.63;;;;;;;3.03;68.04;100453.93;125742;1099;104217;-77
2021/03/24 11:15:04;;;;;;;19.83;9.17;;;;;;;3.03;67.76;100459.12;125139;1099;104194;-78
2021/03/24 11:17:39;;;;;;;14.93;7.93;;;;;;;3.04;67.98;100455.73;125073;1099;104172;-77
2021/03/24 11:20:13;;;;;;;16.27;8.80;;;;;;;2.99;67.93;100451.04;125043;1099;104306;-79
2021/03/24 11:22:54;;;;;;;18.92;8.18;;;;;;;2.99;68.33;100459.73;124956;1099;104197;-77
2021/03/24 11:25:33;;;;;;;16.90;8.73;;;;;;;3.01;67.94;100450.35;125752;1099;104149;-78
2021/03/24 11:28:24;;;;;;;20.03;8.60;;;;;;;3.03;67.60;100458.23;125672;1099;104290;-77
2021/03/24 11:31:04;;;;;;;15.23;8.10;;;;;;;3.02;67.35;100456.42;125890;1099;104206;-79
2021/03/24 11:33:40;;;;;;;18.47;8.10;;;;;;;2.93;67.25;100448.97;126236;1099;104281;-79
2021/03/24 11:36:21;;;;;;;16.83;8.33;;;;;;;2.81;67.53;100453.34;125837;1099;104223;-80
2021/03/24 11:39:06;;;;;;;18.10;9.20;;;;;;;2.77;67.60;100451.34;125724;1098;104296;-79
2021/03/24 11:41:39;;;;;;;15.23;7.67;;;;;;;2.80;67.28;100456.72;126014;1099;104306;-78
2021/03/24 11:44:19;;;;;;;15.07;7.50;;;;;;;2.76;67.87;100454.71;125907;1099;104258;-79
2021/03/24 11:47:15;;;;;;;15.97;7.97;;;;;;;2.70;67.71;100457.81;125881;1099;104595;-80
2021/03/24 11:49:55;;;;;;;15.80;7.87;;;;;;;2.66;67.69;100466.17;125879;1099;104159;-81
2021/03/24 11:53:00;;;;;;;17.03;7.53;;;;;;;2.59;67.45;100474.34;125876;1099;104204;-78
2021/03/24 11:55:53;;;;;;;16.93;7.87;;;;;;;2.51;68.26;100469.53;125941;1099;104204;-79
2021/03/24 11:58:48;;;;;;;18.53;8.40;;;;;;;2.56;68.55;100469.84;125678;1099;105894;-79
2021/03/24 12:01:50;;;;;;;18.70;8.65;;;;;;;2.61;68.11;100464.97;125389;1099;104473;-79
2021/03/24 12:04:36;;;;;;;18.77;8.80;;;;;;;2.58;68.29;100473.42;125858;1099;104146;-78
2021/03/24 12:10:58;;;;;;;17.13;8.50;;;;;;;2.64;67.57;100480.72;125102;1099;104762;-79